logo
Search for airport 
image banner adimage banner adimage banner ad
image banner ad

CYYR - Goose Bay

Located in , Canada

ICAO - CYYR, IATA - YYR

Data provided by Airmate  

General information

Coordinates: N53°19'9" W60°25'33"
Elevation is 160 feet MSL.
Magnetic variation is -19.83° East
View others Airports in Newfoundland and Labrador

Operational data

Special qualification required
Current time UTC:
Current local time:
Weather
METAR: CYYR 162000Z 04012KT 15SM -SHRA FEW010 FEW030 BKN050 BKN100 18/16 A2962 RMK CU1SC1SC5AC2 DENSITY ALT 1106FT LTNG DTCTRS REP STRIKES 33 NM SW SLP030
TAF: TAF CYYR 161740Z 1618/1724 05008KT P6SM SCT010 OVC020 TEMPO 1618/1620 SCT010 OVC030 FM162000 12008KT P6SM SCT030 BKN050 PROB30 1620/1702 VRB20G35KT 1 1/2SM TSRA BR BKN030CB OVC050 FM170200 VRB03KT 4SM BR BKN150 PROB30 1702/1714 1/2SM FG OVC003 FM171400 VRB03KT P6SM SCT150 TEMPO 1714/1720 6SM -SHRA BKN030 BKN150 RMK NXT FCST BY 170000Z
View NOTAMs / SUP AIP / TFR affecting this airport [VIEW]
Communications frequencies: [VIEW]

Runways:

RWY identifierQFULength (ft)Width (ft)SurfaceLDA (ft)
15133°9584200CONC9584
33313°9584200CONC9584
0855°11052200CONC11052
26235°11052200CONC11052

Airport contact information

Address: Canada

Satellite view of CYYR